Flight Track Log - Related Links

Times and Time Zones

All times are in EDT time to prevent confusion due to time zone crossing. See the N319EE flight status page for this flight to view local times or setup timezone preferences in your user account.

Time Position Orientation Groundspeed Altitude Reporting Facility
EDT Latitude Longitude Course Direction KTS MPH feet Rate Location/Type
Thu 04:10:03 PM 43.1078 -77.7397 250° West 167 192 2,900  Level Cleveland Center
Thu 04:10:16 PM 43.1008 -77.7375 167° South 166 191 3,100 1,500 Climbing Cleveland Center
Thu 04:11:19 PM 43.0775 -77.6800 119° Southeast 173 199 4,800 1,536 Climbing Cleveland Center
Thu 04:12:21 PM 43.0619 -77.6103 107° East 186 214 6,300 1,548 Climbing Cleveland Center
Thu 04:13:23 PM 43.0433 -77.5386 110° East 196 226 8,000 1,597 Climbing Cleveland Center
Thu 04:14:25 PM 43.0264 -77.4636 107° East 203 234 9,600 1,500 Climbing Cleveland Center
Thu 04:15:27 PM 43.0014 -77.3606 108° East 237 273 11,100 1,452 Climbing Cleveland Center
Thu 04:16:29 PM 42.9794 -77.2736 109° East 241 277 12,600 919 Climbing Cleveland Center
Thu 04:17:31 PM 42.9578 -77.1814 108° East 252 290 13,000 194 Climbing Cleveland Center
Thu 04:18:33 PM 42.9314 -77.0733 108° East 291 335 13,000  Level Cleveland Center
Thu 04:19:35 PM 42.9031 -76.9614 109° East 309 356 13,000  Level Cleveland Center
Thu 04:20:37 PM 42.8769 -76.8514 108° East 307 353 13,000  Level Cleveland Center
Thu 04:21:39 PM 42.8442 -76.7172 108° East 309 356 13,000 -48 Level Cleveland Center
Thu 04:22:41 PM 42.8211 -76.6228 108° East 307 353 12,900 -48 Descending Cleveland Center
Thu 04:23:43 PM 42.7878 -76.4917 109° East 306 352 12,900  Level Cleveland Center
Thu 04:24:45 PM 42.7606 -76.3814 109° East 309 356 12,900  Level Cleveland Center
Thu 04:25:48 PM 42.7325 -76.2708 109° East 310 357 12,900  Level Cleveland Center
Thu 04:26:50 PM 42.7064 -76.1617 108° East 307 353 12,900  Level Cleveland Center
Thu 04:27:52 PM 42.6758 -76.0508 111° Southeast 313 360 12,900  Level Cleveland Center
Thu 04:28:51 PM 42.6508 -75.9408 107° East 307 353 12,900  Level Boston Center
Thu 04:29:52 PM 42.6208 -75.8319 110° East 307 353 12,900  Level Boston Center
Thu 04:30:50 PM 42.5906 -75.7231 111° Southeast 307 353 12,900  Level Boston Center
Thu 04:31:50 PM 42.5664 -75.6231 108° East 299 344 12,900  Level Boston Center
Thu 04:32:50 PM 42.5361 -75.5089 110° East 299 344 12,900  Level Boston Center
Thu 04:33:51 PM 42.5097 -75.4033 109° East 299 344 12,900  Level Boston Center
Thu 04:34:51 PM 42.4811 -75.2947 110° East 299 344 12,900  Level Boston Center
Thu 04:35:52 PM 42.4483 -75.1864 112° Southeast 299 344 12,900  Level Boston Center
Thu 04:36:50 PM 42.4131 -75.0919 117° Southeast 299 344 12,900  Level Boston Center
Thu 04:37:50 PM 42.3739 -74.9892 117° Southeast 299 344 12,900  Level Boston Center
Thu 04:38:50 PM 42.3364 -74.8922 118° Southeast 299 344 12,900  Level Boston Center
Thu 04:39:51 PM 42.2969 -74.7867 117° Southeast 299 344 12,900  Level Boston Center
Thu 04:40:52 PM 42.2594 -74.6814 116° Southeast 304 350 12,900  Level Boston Center
Thu 04:41:50 PM 42.2217 -74.5819 117° Southeast 304 350 12,900  Level Boston Center
Thu 04:42:50 PM 42.1797 -74.4825 120° Southeast 304 350 12,900 50 Level Boston Center
Thu 04:43:51 PM 42.1358 -74.3831 121° Southeast 314 361 13,000 50 Climbing Boston Center
Thu 04:44:51 PM 42.0856 -74.2753 122° Southeast 309 356 13,000  Level Boston Center
Thu 04:45:52 PM 42.0472 -74.1875 120° Southeast 309 356 13,000  Level Boston Center
Thu 04:46:52 PM 41.9986 -74.0994 127° Southeast 304 350 13,000  Level Boston Center
Thu 04:47:50 PM 41.9331 -74.0139 136° Southeast 297 342 13,000  Level Boston Center
Thu 04:48:50 PM 41.8797 -73.9403 134° Southeast 297 342 13,000 -347 Level Boston Center
Thu 04:49:51 PM 41.8142 -73.8550 136° Southeast 297 342 12,300 -1,180 Descending Boston Center
Thu 04:50:52 PM 41.7589 -73.7814 135° Southeast 302 348 10,600 -1,714 Descending Boston Center
Thu 04:51:50 PM 41.6931 -73.6967 136° Southeast 302 348 8,900 -1,563 Descending Boston Center
Thu 04:52:51 PM 41.6356 -73.6206 135° Southeast 296 341 7,500 -966 Descending Boston Center
Thu 04:55:15 PM 41.5000 -73.4500 137° Southeast 268 308 5,600 -882 Descending New York TRACON
Thu 04:56:15 PM 41.4333 -73.3833 143° Southeast 271 312 4,500 -800 Descending New York TRACON
Thu 04:57:15 PM 41.3833 -73.3333 143° Southeast 254 292 4,000 -250 Descending New York TRACON
Thu 04:58:15 PM 41.3167 -73.3167 169° South 237 273 4,000  Level New York TRACON
Thu 04:59:15 PM 41.2500 -73.3000 169° South 244 281 4,000  Level New York TRACON
Thu 05:00:15 PM 41.1833 -73.3000 180° South 253 291 4,000  Level New York TRACON
Thu 05:01:15 PM 41.1000 -73.3000 180° South 265 305 4,000 -250 Level New York TRACON
Thu 05:02:15 PM 41.0333 -73.3000 180° South 261 300 3,500 -500 Descending New York TRACON
Thu 05:03:15 PM 40.9667 -73.3000 180° South 250 288 3,000 -450 Descending New York TRACON
Thu 05:04:15 PM 40.9000 -73.3167 191° South 234 269 2,600 -350 Descending New York TRACON
Thu 05:05:15 PM 40.8500 -73.3667 217° Southwest 227 261 2,300 -350 Descending New York TRACON
Thu 05:06:15 PM 40.8000 -73.4000 207° Southwest 186 214 1,900 -750 Descending New York TRACON
Thu 05:07:15 PM 40.7667 -73.4167 201° Southwest 137 158 800 -1,100 Descending New York TRACON

Login

Don't have an account? Register now (free) for customized features, flight alerts, and more!